METAR Data
IDs: Format: Raw Decoded Include TAF

Data at: 0444 UTC 26 Sep 2018

KCTB 260356Z AUTO 26011KT 10SM CLR 08/01 A3014 RMK AO2 SLP214 T00780006
KCTB 260256Z AUTO 26012KT 10SM CLR 09/01 A3014 RMK AO2 SLP216 T00890006 58005
KCTB 260156Z AUTO 25010KT 10SM CLR 09/01 A3014 RMK AO2 SLP218 T00940006
KCTB 260056Z AUTO 24011KT 10SM CLR 12/00 A3016 RMK AO2 SLP219 T01220000
KCTB 252356Z AUTO 25013G17KT 10SM CLR 15/M02 A3016 RMK AO2 SLP215 T01501017 10167 20122 55008
KCTB 252256Z AUTO 25012KT 10SM CLR 16/M03 A3015 RMK AO2 SLP210 T01611028
KCTB 252156Z AUTO 29005KT 10SM SCT080 14/M03 A3018 RMK AO2 SLP221 T01441033
KCTB 252056Z AUTO 26005KT 10SM BKN075 15/M03 A3019 RMK AO2 SLP222 T01501033 58010
KCTB 251956Z AUTO 32006KT 10SM OVC075 14/M03 A3020 RMK AO2 SLP226 T01441033
KCTB 251856Z AUTO 31007KT 10SM CLR 13/M02 A3021 RMK AO2 SLP232 T01331017
KCTB 251756Z AUTO 30007KT 10SM CLR 13/02 A3022 RMK AO2 SLP236 T01330022 10133 20022 56004
KCTB 251656Z AUTO 24007KT 10SM CLR 11/04 A3022 RMK AO2 SLP241 T01060044
KCTB 251556Z AUTO 22004KT 10SM CLR 07/04 A3023 RMK AO2 SLP245 T00670039
KCTB 251456Z AUTO 20004KT 10SM FEW060 04/03 A3023 RMK AO2 SLP254 T00440028 51003
KCTB 251356Z AUTO 26007KT 10SM FEW070 03/01 A3023 RMK AO2 SLP253 T00280011
KCTB 251256Z AUTO 28008KT 10SM OVC095 03/02 A3023 RMK AO2 SLP252 T00280017
KCTB 251156Z AUTO 28009KT 10SM BKN100 02/02 A3022 RMK AO2 SLP244 60001 70012 T00220017 10050 20022 53002
KCTB 251056Z AUTO 27008KT 10SM FEW060 BKN080 03/03 A3021 RMK AO2 SLP238 T00330028
KCTB 250956Z AUTO 28010KT 10SM OVC070 04/03 A3022 RMK AO2 SLP236 T00440033
KCTB 250856Z AUTO 28012KT 10SM BKN070 OVC090 05/03 A3022 RMK AO2 SLP235 60001 T00500033 53004
KCTB 250756Z AUTO 27012KT 10SM OVC070 05/04 A3021 RMK AO2 RAB02E40 SLP238 P0001 T00500039
KCTB 250656Z AUTO 28009KT 10SM OVC060 05/04 A3021 RMK AO2 SLP236 T00500039 401440039
KCTB 250556Z AUTO 27005KT 10SM FEW070 OVC090 04/04 A3021 RMK AO2 RAE16 SLP242 P0001 60010 T00390039 10111 20039 51012
KCTB 250509Z AUTO 01008KT 8SM -RA OVC033 04/04 A3020 RMK AO2 P0001 T00440039
KCTB 250456Z AUTO 03009KT 5SM RA BR BKN027 OVC036 04/04 A3020 RMK AO2 SLP240 P0006 T00440039
KCTB 250443Z AUTO 36013KT 10SM -RA FEW024 BKN030 OVC039 04/04 A3021 RMK AO2 P0004 T00440039
KCTB 250417Z AUTO 32016G21KT 6SM RA BR OVC028 06/04 A3019 RMK AO2 P0002 T00560039
KCTB 250356Z AUTO 33012G26KT 7SM -RA SCT032 OVC060 06/03 A3017 RMK AO2 PK WND 32026/0347 RAB33 SLP229 P0001 T00610033
KCTB 250256Z AUTO 28005KT 10SM FEW050 FEW070 OVC090 06/04 A3014 RMK AO2 WSHFT 0201 RAE32 SLP222 P0002 60002 T00560039 51023
KCTB 250221Z AUTO 25010KT 8SM -RA OVC032 06/04 A3014 RMK AO2 WSHFT 0201 P0002 T00610044
KCTB 250156Z AUTO 34016KT 9SM -RA OVC044 07/03 A3013 RMK AO2 PK WND 33029/0136 RAB51 SLP215 P0000 T00720033
KCTB 250056Z AUTO 28011KT 10SM BKN075 OVC090 08/02 A3010 RMK AO2 RAE2359 SLP201 P0000 T00830017
KCTB 242356Z AUTO 29012G24KT 9SM -RA SCT048 BKN070 OVC085 11/M01 A3007 RMK AO2 RAB50 SLP187 P0000 60000 T01061006 10144 20072 53010
KCTB 242256Z AUTO 34012KT 10SM OVC075 12/M02 A3005 RMK AO2 SLP176 T01221022
KCTB 242156Z AUTO 34011KT 10SM FEW055 SCT075 OVC090 13/M02 A3003 RMK AO2 SLP171 T01281017
KCTB 242056Z AUTO 32010G17KT 10SM SCT050 BKN065 BKN090 13/00 A3003 RMK AO2 RAB00E11 SLP167 P0000 60000 T01330000 58006
KCTB 241956Z AUTO 28011KT 10SM FEW030 BKN048 OVC060 09/03 A3005 RMK AO2 SLP178 T00940028
KCTB 241856Z AUTO 28006KT 10SM SCT027 BKN034 BKN042 10/03 A3005 RMK AO2 SLP176 T01000033
KCTB 241827Z AUTO 28008KT 10SM FEW019 SCT024 09/04 A3005 RMK AO2 T00890044
KCTB 241756Z AUTO 30008KT 10SM BKN020 07/04 A3005 RMK AO2 SLP179 60001 T00720039 10072 20039 51009
KCTB 241718Z AUTO 32009KT 10SM FEW012 BKN017 OVC070 06/04 A3005 RMK AO2 T00610039
KCTB 241704Z AUTO 33009KT 10SM SCT012 OVC047 06/04 A3005 RMK AO2 T00610039
KCTB 241656Z AUTO 33008KT 9SM SCT010 BKN017 OVC047 06/04 A3004 RMK AO2 RAE43 SLP180 P0000 T00610044